createdAt,value
2023-02-27T00:00:10.696Z,-2.64
2023-02-27T00:00:43.365Z,-2.64
2023-02-27T00:01:16.074Z,-2.64
2023-02-27T00:01:48.766Z,-2.63
2023-02-27T00:02:21.442Z,-2.63
2023-02-27T00:02:54.202Z,-2.66
2023-02-27T00:03:26.901Z,-2.67
2023-02-27T00:03:59.605Z,-2.64
2023-02-27T00:04:32.279Z,-2.66
2023-02-27T00:05:04.944Z,-2.64
2023-02-27T00:05:37.606Z,-2.66
2023-02-27T00:06:10.276Z,-2.64
2023-02-27T00:06:42.960Z,-2.64
2023-02-27T00:07:15.632Z,-2.64
2023-02-27T00:07:48.299Z,-2.64
2023-02-27T00:08:20.963Z,-2.63
2023-02-27T00:08:53.693Z,-2.61
2023-02-27T00:09:26.358Z,-2.61
2023-02-27T00:09:59.027Z,-2.60
2023-02-27T00:10:31.697Z,-2.60
2023-02-27T00:11:04.378Z,-2.60
2023-02-27T00:11:37.032Z,-2.60
2023-02-27T00:12:09.697Z,-2.60
2023-02-27T00:12:42.365Z,-2.58
2023-02-27T00:13:15.024Z,-2.58
2023-02-27T00:13:47.699Z,-2.60
2023-02-27T00:14:20.383Z,-2.58
2023-02-27T00:14:53.118Z,-2.56
2023-02-27T00:15:25.744Z,-2.56
2023-02-27T00:15:58.536Z,-2.56
2023-02-27T00:16:31.198Z,-2.58
2023-02-27T00:17:03.869Z,-2.56
2023-02-27T00:17:36.547Z,-2.55
2023-02-27T00:18:09.222Z,-2.55
2023-02-27T00:18:41.915Z,-2.53
2023-02-27T00:19:14.562Z,-2.55
2023-02-27T00:19:47.261Z,-2.55
2023-02-27T00:20:19.930Z,-2.55
2023-02-27T00:20:51.040Z,-2.53
2023-02-27T00:21:23.958Z,-2.53
2023-02-27T00:21:50.238Z,-2.55
2023-02-27T00:22:22.922Z,-2.55
2023-02-27T00:22:55.600Z,-2.56
2023-02-27T00:23:28.271Z,-2.56
2023-02-27T00:24:00.943Z,-2.56
2023-02-27T00:24:33.622Z,-2.58
2023-02-27T00:25:06.306Z,-2.56
2023-02-27T00:25:38.976Z,-2.58
2023-02-27T00:26:11.657Z,-2.55
2023-02-27T00:26:44.322Z,-2.60
2023-02-27T00:27:17.000Z,-2.58
2023-02-27T00:27:49.666Z,-2.60
2023-02-27T00:28:22.336Z,-2.58
2023-02-27T00:28:55.010Z,-2.60
2023-02-27T00:29:27.703Z,-2.60
2023-02-27T00:30:00.399Z,-2.58
2023-02-27T00:30:33.259Z,-2.60
2023-02-27T00:31:06.047Z,-2.58
2023-02-27T00:31:38.749Z,-2.56
2023-02-27T00:32:11.477Z,-2.58
2023-02-27T00:32:44.161Z,-2.60
2023-02-27T00:33:16.834Z,-2.58
2023-02-27T00:33:49.516Z,-2.58
2023-02-27T00:34:22.177Z,-2.60
2023-02-27T00:34:54.863Z,-2.61
2023-02-27T00:35:27.532Z,-2.61
2023-02-27T00:36:00.207Z,-2.60
2023-02-27T00:36:32.884Z,-2.63
2023-02-27T00:37:05.574Z,-2.61
2023-02-27T00:37:38.247Z,-2.63
2023-02-27T00:38:10.929Z,-2.63
2023-02-27T00:38:43.594Z,-2.63
2023-02-27T00:39:16.263Z,-2.60
2023-02-27T00:39:48.950Z,-2.63
2023-02-27T00:40:21.639Z,-2.63
2023-02-27T00:40:54.311Z,-2.63
2023-02-27T00:41:27.264Z,-2.64
2023-02-27T00:41:58.063Z,-2.63
2023-02-27T00:42:30.723Z,-2.63
2023-02-27T00:43:03.389Z,-2.64
2023-02-27T00:43:36.069Z,-2.61
2023-02-27T00:44:08.737Z,-2.63
2023-02-27T00:44:41.422Z,-2.63
2023-02-27T00:45:14.125Z,-2.64
2023-02-27T00:45:46.762Z,-2.67
2023-02-27T00:46:19.467Z,-2.64
2023-02-27T00:46:52.190Z,-2.64
2023-02-27T00:47:24.875Z,-2.66
2023-02-27T00:47:57.550Z,-2.66
2023-02-27T00:48:30.226Z,-2.63
2023-02-27T00:49:02.903Z,-2.66
2023-02-27T00:49:35.599Z,-2.67
2023-02-27T00:50:08.277Z,-2.68
2023-02-27T00:50:40.955Z,-2.70
2023-02-27T00:51:13.614Z,-2.71
2023-02-27T00:51:46.275Z,-2.74
2023-02-27T00:52:18.944Z,-2.74
2023-02-27T00:52:51.611Z,-2.78
2023-02-27T00:53:24.277Z,-2.81
2023-02-27T00:53:56.953Z,-2.81
2023-02-27T00:54:29.664Z,-2.84
2023-02-27T00:55:02.339Z,-2.82
2023-02-27T00:55:34.996Z,-2.85
2023-02-27T00:56:07.672Z,-2.85
2023-02-27T00:56:40.358Z,-2.86
2023-02-27T00:57:13.057Z,-2.86
2023-02-27T00:57:45.775Z,-2.88
2023-02-27T00:58:18.423Z,-2.88
2023-02-27T00:58:51.094Z,-2.88
2023-02-27T00:59:23.786Z,-2.88
2023-02-27T00:59:56.447Z,-2.88
2023-02-27T01:00:29.273Z,-2.88
2023-02-27T01:01:01.960Z,-2.86
2023-02-27T01:01:34.616Z,-2.86
2023-02-27T01:02:07.280Z,-2.86
2023-02-27T01:02:39.984Z,-2.85
2023-02-27T01:03:12.640Z,-2.85
2023-02-27T01:03:45.313Z,-2.85
2023-02-27T01:04:17.975Z,-2.85
2023-02-27T01:04:50.658Z,-2.85
2023-02-27T01:05:23.343Z,-2.85
2023-02-27T01:05:56.017Z,-2.84
2023-02-27T01:06:28.685Z,-2.85
2023-02-27T01:07:01.375Z,-2.84
2023-02-27T01:07:34.020Z,-2.84
2023-02-27T01:08:06.691Z,-2.84
2023-02-27T01:08:39.357Z,-2.85
2023-02-27T01:09:12.050Z,-2.84
2023-02-27T01:09:44.747Z,-2.84
2023-02-27T01:10:17.431Z,-2.84
2023-02-27T01:10:50.103Z,-2.84
2023-02-27T01:11:22.769Z,-2.82
2023-02-27T01:11:55.433Z,-2.81
2023-02-27T01:12:28.100Z,-2.84
2023-02-27T01:13:00.769Z,-2.82
2023-02-27T01:13:33.453Z,-2.84
2023-02-27T01:14:06.129Z,-2.85
2023-02-27T01:14:38.817Z,-2.84
2023-02-27T01:15:11.485Z,-2.82
2023-02-27T01:15:44.176Z,-2.82
2023-02-27T01:16:16.880Z,-2.82
2023-02-27T01:16:49.524Z,-2.84
2023-02-27T01:17:22.190Z,-2.84
2023-02-27T01:17:54.858Z,-2.84
2023-02-27T01:18:27.525Z,-2.88
2023-02-27T01:19:00.198Z,-2.92
2023-02-27T01:19:32.872Z,-2.94
2023-02-27T01:20:05.549Z,-2.97
2023-02-27T01:20:38.221Z,-3.02
2023-02-27T01:21:10.897Z,-3.02
2023-02-27T01:21:43.558Z,-3.06
2023-02-27T01:22:16.239Z,-3.09
2023-02-27T01:22:48.913Z,-3.07
2023-02-27T01:23:21.581Z,-3.09
2023-02-27T01:23:54.247Z,-3.10
2023-02-27T01:24:26.937Z,-3.12
2023-02-27T01:24:59.603Z,-3.12
2023-02-27T01:25:32.275Z,-3.14
2023-02-27T01:26:04.975Z,-3.12
2023-02-27T01:26:37.671Z,-3.14
2023-02-27T01:27:10.336Z,-3.14
2023-02-27T01:27:43.005Z,-3.18
2023-02-27T01:28:15.669Z,-3.17
2023-02-27T01:28:48.338Z,-3.18
2023-02-27T01:29:21.002Z,-3.20
2023-02-27T01:29:53.705Z,-3.20
2023-02-27T01:30:26.401Z,-3.23
2023-02-27T01:30:59.128Z,-3.24
2023-02-27T01:31:31.842Z,-3.27
2023-02-27T01:32:04.573Z,-3.28
2023-02-27T01:32:37.312Z,-3.31
2023-02-27T01:33:10.015Z,-3.33
2023-02-27T01:33:42.675Z,-3.35
2023-02-27T01:34:15.355Z,-3.39
2023-02-27T01:34:48.047Z,-3.45
2023-02-27T01:35:20.708Z,-3.46
2023-02-27T01:35:53.381Z,-3.46
2023-02-27T01:36:26.070Z,-3.49
2023-02-27T01:36:58.714Z,-3.49
2023-02-27T01:37:31.401Z,-3.53
2023-02-27T01:38:04.063Z,-3.53
2023-02-27T01:38:36.736Z,-3.56
2023-02-27T01:39:09.419Z,-3.56
2023-02-27T01:39:42.084Z,-3.57
2023-02-27T01:40:14.774Z,-3.59
2023-02-27T01:40:47.425Z,-3.57
2023-02-27T01:41:20.099Z,-3.57
2023-02-27T01:41:52.763Z,-3.56
2023-02-27T01:42:25.429Z,-3.52
2023-02-27T01:42:58.111Z,-3.49
2023-02-27T01:43:30.772Z,-3.49
2023-02-27T01:44:03.432Z,-3.45
2023-02-27T01:44:36.111Z,-3.45
2023-02-27T01:45:08.792Z,-3.43
2023-02-27T01:45:41.540Z,-3.42
2023-02-27T01:46:14.282Z,-3.41
2023-02-27T01:46:46.975Z,-3.42
2023-02-27T01:47:19.644Z,-3.42
2023-02-27T01:47:52.302Z,-3.41
2023-02-27T01:48:24.980Z,-3.39
2023-02-27T01:48:57.637Z,-3.41
2023-02-27T01:49:30.329Z,-3.38
2023-02-27T01:50:03.009Z,-3.38
2023-02-27T01:50:35.676Z,-3.35
2023-02-27T01:51:08.389Z,-3.31
2023-02-27T01:51:41.051Z,-3.35
2023-02-27T01:52:13.722Z,-3.35
2023-02-27T01:52:44.829Z,-3.33
2023-02-27T01:53:17.506Z,-3.30
2023-02-27T01:53:50.173Z,-3.30
2023-02-27T01:54:22.850Z,-3.31
2023-02-27T01:54:55.514Z,-3.30
2023-02-27T01:55:28.177Z,-3.28
2023-02-27T01:56:00.851Z,-3.31
2023-02-27T01:56:33.512Z,-3.30
2023-02-27T01:57:06.194Z,-3.30
2023-02-27T01:57:38.862Z,-3.30
2023-02-27T01:58:11.534Z,-3.30
2023-02-27T01:58:44.196Z,-3.27
2023-02-27T01:59:16.956Z,-3.28
2023-02-27T01:59:49.609Z,-3.28
2023-02-27T02:00:22.297Z,-3.27
2023-02-27T02:00:54.987Z,-3.28
2023-02-27T02:01:28.120Z,-3.25
2023-02-27T02:01:54.476Z,-3.27
2023-02-27T02:02:27.237Z,-3.28
2023-02-27T02:02:59.914Z,-3.27
2023-02-27T02:03:32.583Z,-3.28
2023-02-27T02:04:05.257Z,-3.25
2023-02-27T02:04:37.953Z,-3.27
2023-02-27T02:05:10.621Z,-3.27
2023-02-27T02:05:43.306Z,-3.27
2023-02-27T02:06:15.975Z,-3.27
2023-02-27T02:06:48.645Z,-3.30
2023-02-27T02:07:21.306Z,-3.28
2023-02-27T02:07:53.977Z,-3.28
2023-02-27T02:08:26.643Z,-3.27
2023-02-27T02:08:59.327Z,-3.27
2023-02-27T02:09:32.036Z,-3.25
2023-02-27T02:10:04.712Z,-3.25
2023-02-27T02:10:37.384Z,-3.25
2023-02-27T02:11:10.061Z,-3.25
2023-02-27T02:11:42.793Z,-3.25
2023-02-27T02:12:15.436Z,-3.24
2023-02-27T02:12:48.102Z,-3.25
2023-02-27T02:13:20.771Z,-3.24
2023-02-27T02:13:53.445Z,-3.25
2023-02-27T02:14:26.133Z,-3.27
2023-02-27T02:14:58.788Z,-3.27
2023-02-27T02:15:31.468Z,-3.24
2023-02-27T02:16:04.135Z,-3.28
2023-02-27T02:16:36.935Z,-3.27
2023-02-27T02:17:09.594Z,-3.28
2023-02-27T02:17:42.258Z,-3.28
2023-02-27T02:18:14.937Z,-3.28
2023-02-27T02:18:47.614Z,-3.30
2023-02-27T02:19:20.281Z,-3.31
2023-02-27T02:19:52.967Z,-3.31
2023-02-27T02:20:25.639Z,-3.33
2023-02-27T02:20:58.295Z,-3.33
2023-02-27T02:21:30.982Z,-3.35
2023-02-27T02:22:03.667Z,-3.36
2023-02-27T02:22:36.312Z,-3.41
2023-02-27T02:23:08.994Z,-3.43
2023-02-27T02:23:41.651Z,-3.45
2023-02-27T02:24:14.317Z,-3.45
2023-02-27T02:24:46.997Z,-3.49
2023-02-27T02:25:19.679Z,-3.49
2023-02-27T02:25:52.347Z,-3.48
2023-02-27T02:26:25.121Z,-3.53
2023-02-27T02:26:57.978Z,-3.52
2023-02-27T02:27:30.662Z,-3.52
2023-02-27T02:28:03.309Z,-3.52
2023-02-27T02:28:35.985Z,-3.46
2023-02-27T02:29:07.071Z,-3.48
2023-02-27T02:29:39.757Z,-3.46
2023-02-27T02:30:12.429Z,-3.48
2023-02-27T02:30:45.198Z,-3.48
2023-02-27T02:31:17.985Z,-3.48
2023-02-27T02:31:50.920Z,-3.52
2023-02-27T02:32:23.706Z,-3.52
2023-02-27T02:32:56.370Z,-3.54
2023-02-27T02:33:29.033Z,-3.49
2023-02-27T02:34:01.711Z,-3.49
2023-02-27T02:34:34.377Z,-3.53
2023-02-27T02:35:07.048Z,-3.52
2023-02-27T02:35:39.716Z,-3.54
2023-02-27T02:36:12.389Z,-3.53
2023-02-27T02:36:45.080Z,-3.52
2023-02-27T02:37:17.730Z,-3.48
2023-02-27T02:37:50.403Z,-3.54
2023-02-27T02:38:23.082Z,-3.57
2023-02-27T02:38:55.754Z,-3.57
2023-02-27T02:39:28.457Z,-3.62
2023-02-27T02:40:01.108Z,-3.60
2023-02-27T02:40:33.779Z,-3.62
2023-02-27T02:41:06.442Z,-3.64
2023-02-27T02:41:39.135Z,-3.67
2023-02-27T02:42:11.796Z,-3.69
2023-02-27T02:42:44.465Z,-3.72
2023-02-27T02:43:17.161Z,-3.75
2023-02-27T02:43:49.817Z,-3.76
2023-02-27T02:44:22.512Z,-3.79
2023-02-27T02:44:55.227Z,-3.82
2023-02-27T02:45:27.874Z,-3.82
2023-02-27T02:46:00.569Z,-3.86
2023-02-27T02:46:33.236Z,-3.86
2023-02-27T02:47:05.966Z,-3.88
2023-02-27T02:47:38.667Z,-3.91
2023-02-27T02:48:11.347Z,-3.90
2023-02-27T02:48:44.011Z,-3.90
2023-02-27T02:49:16.686Z,-3.90
2023-02-27T02:49:49.374Z,-3.90
2023-02-27T02:50:22.046Z,-3.91
2023-02-27T02:50:54.722Z,-3.88
2023-02-27T02:51:27.775Z,-3.90
2023-02-27T02:51:54.131Z,-3.91
2023-02-27T02:52:26.806Z,-3.90
2023-02-27T02:52:59.503Z,-3.91
2023-02-27T02:53:37.070Z,-3.91
2023-02-27T02:54:04.240Z,-3.93
2023-02-27T02:54:30.431Z,-3.94
2023-02-27T02:55:03.096Z,-3.96
2023-02-27T02:55:35.760Z,-3.97
2023-02-27T02:56:08.423Z,-3.99
2023-02-27T02:56:41.119Z,-3.99
2023-02-27T02:57:13.760Z,-3.97
2023-02-27T02:57:46.450Z,-3.99
2023-02-27T02:58:19.119Z,-3.97
2023-02-27T02:58:51.806Z,-3.96
2023-02-27T02:59:24.473Z,-3.94
2023-02-27T02:59:57.149Z,-3.97
2023-02-27T03:00:29.804Z,-4.00
2023-02-27T03:01:02.490Z,-4.01
2023-02-27T03:01:35.184Z,-4.01
2023-02-27T03:02:07.849Z,-4.00
2023-02-27T03:02:40.515Z,-4.03
2023-02-27T03:03:13.190Z,-4.03
2023-02-27T03:03:45.861Z,-4.03
2023-02-27T03:04:18.568Z,-4.01
2023-02-27T03:04:51.262Z,-4.04
2023-02-27T03:05:23.943Z,-4.04
2023-02-27T03:05:56.616Z,-4.03
2023-02-27T03:06:29.293Z,-4.00
2023-02-27T03:07:01.970Z,-4.00
2023-02-27T03:07:34.695Z,-3.99
2023-02-27T03:08:07.356Z,-3.96
2023-02-27T03:08:40.036Z,-3.97
2023-02-27T03:09:12.710Z,-3.94
2023-02-27T03:09:45.390Z,-3.94
2023-02-27T03:10:18.048Z,-3.93
2023-02-27T03:10:50.865Z,-3.94
2023-02-27T03:11:23.534Z,-3.90
2023-02-27T03:11:56.212Z,-3.88
2023-02-27T03:12:28.864Z,-3.88
2023-02-27T03:13:01.536Z,-3.88
2023-02-27T03:13:34.233Z,-3.88
2023-02-27T03:14:06.880Z,-3.86
2023-02-27T03:14:39.545Z,-3.85
2023-02-27T03:15:12.240Z,-3.85
2023-02-27T03:15:43.420Z,-3.83
2023-02-27T03:16:16.062Z,-3.82
2023-02-27T03:16:48.731Z,-3.81
2023-02-27T03:17:21.426Z,-3.85
2023-02-27T03:17:54.083Z,-3.88
2023-02-27T03:18:26.735Z,-3.86
2023-02-27T03:18:59.400Z,-3.90
2023-02-27T03:19:32.081Z,-3.94
2023-02-27T03:20:04.775Z,-3.96
2023-02-27T03:20:37.440Z,-3.97
2023-02-27T03:21:10.105Z,-4.00
2023-02-27T03:21:42.807Z,-4.03
2023-02-27T03:22:15.477Z,-4.07
2023-02-27T03:22:48.145Z,-4.07
2023-02-27T03:23:20.829Z,-4.10
2023-02-27T03:23:53.513Z,-4.14
2023-02-27T03:24:26.316Z,-4.15
2023-02-27T03:24:59.010Z,-4.15
2023-02-27T03:25:31.673Z,-4.15
2023-02-27T03:26:04.341Z,-4.14
2023-02-27T03:26:37.005Z,-4.15
2023-02-27T03:27:09.678Z,-4.12
2023-02-27T03:27:42.348Z,-4.12
2023-02-27T03:28:15.028Z,-4.12
2023-02-27T03:28:47.704Z,-4.10
2023-02-27T03:29:20.372Z,-4.10
2023-02-27T03:29:53.045Z,-4.07
2023-02-27T03:30:25.828Z,-4.07
2023-02-27T03:30:58.594Z,-4.04
2023-02-27T03:31:31.691Z,-4.04
2023-02-27T03:31:58.010Z,-4.00
2023-02-27T03:32:30.714Z,-4.01
2023-02-27T03:33:03.368Z,-4.03
2023-02-27T03:33:36.053Z,-4.03
2023-02-27T03:34:08.716Z,-4.01
2023-02-27T03:34:41.392Z,-4.01
2023-02-27T03:35:14.066Z,-4.01
2023-02-27T03:35:46.734Z,-4.00
2023-02-27T03:36:19.398Z,-4.03
2023-02-27T03:36:52.072Z,-4.01
2023-02-27T03:37:24.731Z,-4.01
2023-02-27T03:37:57.400Z,-4.00
2023-02-27T03:38:30.066Z,-3.97
2023-02-27T03:39:02.746Z,-3.96
2023-02-27T03:39:35.418Z,-3.94
2023-02-27T03:40:08.136Z,-3.96
2023-02-27T03:40:40.793Z,-3.93
2023-02-27T03:41:13.465Z,-3.93
2023-02-27T03:41:46.152Z,-3.93
2023-02-27T03:42:18.816Z,-3.91
2023-02-27T03:42:51.485Z,-3.91
2023-02-27T03:43:24.168Z,-3.91
2023-02-27T03:43:56.843Z,-3.93
2023-02-27T03:44:29.502Z,-3.91
2023-02-27T03:45:02.166Z,-3.86
2023-02-27T03:45:33.271Z,-3.88
2023-02-27T03:46:06.007Z,-3.90
2023-02-27T03:46:38.712Z,-3.90
2023-02-27T03:47:11.369Z,-3.90
2023-02-27T03:47:44.065Z,-3.88
2023-02-27T03:48:16.715Z,-3.86
2023-02-27T03:48:49.377Z,-3.85
2023-02-27T03:49:22.042Z,-3.90
2023-02-27T03:49:54.707Z,-3.86
2023-02-27T03:50:27.396Z,-3.85
2023-02-27T03:51:00.074Z,-3.86
2023-02-27T03:51:32.721Z,-3.90
2023-02-27T03:52:05.395Z,-3.86
2023-02-27T03:52:38.072Z,-3.86
2023-02-27T03:53:10.744Z,-3.86
2023-02-27T03:53:43.433Z,-3.86
2023-02-27T03:54:16.083Z,-3.86
2023-02-27T03:54:48.765Z,-3.90
2023-02-27T03:55:21.452Z,-3.91
2023-02-27T03:55:54.130Z,-3.94
2023-02-27T03:56:26.797Z,-3.99
2023-02-27T03:56:59.469Z,-4.06
2023-02-27T03:57:32.138Z,-4.11
2023-02-27T03:58:04.796Z,-4.14
2023-02-27T03:58:37.476Z,-4.17
2023-02-27T03:59:10.150Z,-4.20
2023-02-27T03:59:42.826Z,-4.22
2023-02-27T04:00:15.537Z,-4.24
2023-02-27T04:00:48.205Z,-4.24
2023-02-27T04:01:20.922Z,-4.28
2023-02-27T04:01:53.660Z,-4.28
2023-02-27T04:02:26.394Z,-4.29
2023-02-27T04:02:59.106Z,-4.29
2023-02-27T04:03:31.747Z,-4.30
2023-02-27T04:04:02.840Z,-4.32
2023-02-27T04:04:35.512Z,-4.33
2023-02-27T04:05:08.194Z,-4.33
2023-02-27T04:05:40.862Z,-4.38
2023-02-27T04:06:13.548Z,-4.38
2023-02-27T04:06:46.224Z,-4.38
2023-02-27T04:07:18.890Z,-4.38
2023-02-27T04:07:51.564Z,-4.38
2023-02-27T04:08:24.235Z,-4.40
2023-02-27T04:08:56.909Z,-4.42
2023-02-27T04:09:29.576Z,-4.42
2023-02-27T04:10:02.255Z,-4.39
2023-02-27T04:10:34.932Z,-4.38
2023-02-27T04:11:06.030Z,-4.35
2023-02-27T04:11:38.695Z,-4.36
2023-02-27T04:12:11.367Z,-4.36
2023-02-27T04:12:45.869Z,-4.36
2023-02-27T04:13:12.179Z,-4.33
2023-02-27T04:13:44.840Z,-4.36
2023-02-27T04:14:17.514Z,-4.32
2023-02-27T04:14:50.186Z,-4.33
2023-02-27T04:15:22.868Z,-4.33
2023-02-27T04:15:55.563Z,-4.32
2023-02-27T04:16:28.267Z,-4.33
2023-02-27T04:17:01.013Z,-4.36
2023-02-27T04:17:33.661Z,-4.33
2023-02-27T04:18:06.585Z,-4.33
2023-02-27T04:18:39.242Z,-4.33
2023-02-27T04:19:11.932Z,-4.33
2023-02-27T04:19:44.599Z,-4.32
2023-02-27T04:20:17.306Z,-4.30
2023-02-27T04:20:49.950Z,-4.33
2023-02-27T04:21:22.627Z,-4.30
2023-02-27T04:21:55.315Z,-4.28
2023-02-27T04:22:27.988Z,-4.28
2023-02-27T04:23:00.645Z,-4.28
2023-02-27T04:23:33.318Z,-4.24
2023-02-27T04:24:06.016Z,-4.24
2023-02-27T04:24:38.661Z,-4.24
2023-02-27T04:25:11.357Z,-4.22
2023-02-27T04:25:44.025Z,-4.25
2023-02-27T04:26:16.674Z,-4.28
2023-02-27T04:26:49.349Z,-4.28
2023-02-27T04:27:22.032Z,-4.25
2023-02-27T04:27:54.687Z,-4.28
2023-02-27T04:28:27.353Z,-4.29
2023-02-27T04:29:00.032Z,-4.28
2023-02-27T04:29:32.725Z,-4.29
2023-02-27T04:30:05.382Z,-4.29
2023-02-27T04:30:38.083Z,-4.32
2023-02-27T04:31:10.856Z,-4.33
2023-02-27T04:31:43.723Z,-4.33
2023-02-27T04:32:16.591Z,-4.33
2023-02-27T04:32:49.330Z,-4.36
2023-02-27T04:33:21.992Z,-4.36
2023-02-27T04:33:54.657Z,-4.35
2023-02-27T04:34:27.317Z,-4.36
2023-02-27T04:34:59.993Z,-4.38
2023-02-27T04:35:32.696Z,-4.38
2023-02-27T04:36:05.393Z,-4.39
2023-02-27T04:36:38.060Z,-4.39
2023-02-27T04:37:10.733Z,-4.40
2023-02-27T04:37:43.401Z,-4.43
2023-02-27T04:38:16.069Z,-4.46
2023-02-27T04:38:48.742Z,-4.50
2023-02-27T04:39:21.417Z,-4.51
2023-02-27T04:39:54.087Z,-4.51
2023-02-27T04:40:26.789Z,-4.56
2023-02-27T04:40:59.458Z,-4.58
2023-02-27T04:41:32.120Z,-4.60
2023-02-27T04:42:04.796Z,-4.61
2023-02-27T04:42:37.464Z,-4.67
2023-02-27T04:43:10.135Z,-4.67
2023-02-27T04:43:43.823Z,-4.68
2023-02-27T04:44:10.728Z,-4.69
2023-02-27T04:44:43.381Z,-4.71
2023-02-27T04:45:16.245Z,-4.72
2023-02-27T04:45:48.888Z,-4.74
2023-02-27T04:46:21.551Z,-4.74
2023-02-27T04:46:54.228Z,-4.75
2023-02-27T04:47:26.899Z,-4.75
2023-02-27T04:47:59.583Z,-4.75
2023-02-27T04:48:32.284Z,-4.75
2023-02-27T04:49:04.939Z,-4.77
2023-02-27T04:49:37.635Z,-4.74
2023-02-27T04:50:10.285Z,-4.74
2023-02-27T04:50:42.978Z,-4.74
2023-02-27T04:51:15.648Z,-4.71
2023-02-27T04:51:48.310Z,-4.71
2023-02-27T04:52:20.980Z,-4.69
2023-02-27T04:52:53.642Z,-4.69
2023-02-27T04:53:26.316Z,-4.68
2023-02-27T04:53:59.000Z,-4.67
2023-02-27T04:54:31.659Z,-4.67
2023-02-27T04:55:04.337Z,-4.67
2023-02-27T04:55:37.002Z,-4.67
2023-02-27T04:56:09.691Z,-4.68
2023-02-27T04:56:42.365Z,-4.71
2023-02-27T04:57:15.042Z,-4.72
2023-02-27T04:57:47.748Z,-4.75
2023-02-27T04:58:20.385Z,-4.77
2023-02-27T04:58:53.059Z,-4.77
2023-02-27T04:59:25.737Z,-4.78
2023-02-27T04:59:58.393Z,-4.79
2023-02-27T05:00:31.067Z,-4.81
2023-02-27T05:01:03.741Z,-4.83
2023-02-27T05:01:36.462Z,-4.81
2023-02-27T05:02:09.182Z,-4.85
2023-02-27T05:02:42.056Z,-4.83
2023-02-27T05:03:14.732Z,-4.83
2023-02-27T05:03:47.418Z,-4.83
2023-02-27T05:04:20.064Z,-4.85
2023-02-27T05:04:52.726Z,-4.86
2023-02-27T05:05:25.395Z,-4.83
2023-02-27T05:05:58.091Z,-4.83
2023-02-27T05:06:30.780Z,-4.81
2023-02-27T05:07:03.448Z,-4.83
2023-02-27T05:07:36.118Z,-4.81
2023-02-27T05:08:08.797Z,-4.81
2023-02-27T05:08:41.461Z,-4.81
2023-02-27T05:09:14.126Z,-4.77
2023-02-27T05:09:46.793Z,-4.74
2023-02-27T05:10:19.460Z,-4.72
2023-02-27T05:10:52.136Z,-4.68
2023-02-27T05:11:25.017Z,-4.68
2023-02-27T05:11:57.799Z,-4.65
2023-02-27T05:12:30.473Z,-4.63
2023-02-27T05:13:03.140Z,-4.60
2023-02-27T05:13:35.825Z,-4.60
2023-02-27T05:14:08.477Z,-4.58
2023-02-27T05:14:41.174Z,-4.60
2023-02-27T05:15:13.863Z,-4.57
2023-02-27T05:15:46.599Z,-4.56
2023-02-27T05:16:19.296Z,-4.56
2023-02-27T05:16:51.955Z,-4.53
2023-02-27T05:17:24.619Z,-4.53
2023-02-27T05:17:57.438Z,-4.51
2023-02-27T05:18:30.097Z,-4.51
2023-02-27T05:19:02.782Z,-4.46
2023-02-27T05:19:35.441Z,-4.46
2023-02-27T05:20:08.102Z,-4.42
2023-02-27T05:20:40.767Z,-4.46
2023-02-27T05:21:13.447Z,-4.42
2023-02-27T05:21:46.121Z,-4.43
2023-02-27T05:22:18.802Z,-4.43
2023-02-27T05:22:51.464Z,-4.42
2023-02-27T05:23:24.133Z,-4.42
2023-02-27T05:23:56.797Z,-4.39
2023-02-27T05:24:29.474Z,-4.39
2023-02-27T05:25:02.154Z,-4.39
2023-02-27T05:25:34.820Z,-4.39
2023-02-27T05:26:07.493Z,-4.40
2023-02-27T05:26:40.166Z,-4.38
2023-02-27T05:27:12.856Z,-4.36
2023-02-27T05:27:45.534Z,-4.35
2023-02-27T05:28:18.205Z,-4.36
2023-02-27T05:28:50.867Z,-4.33
2023-02-27T05:29:23.534Z,-4.32
2023-02-27T05:29:56.229Z,-4.30
2023-02-27T05:30:28.903Z,-4.30
2023-02-27T05:31:01.582Z,-4.30
2023-02-27T05:31:34.282Z,-4.30
2023-02-27T05:32:07.037Z,-4.30
2023-02-27T05:32:39.791Z,-4.30
2023-02-27T05:33:12.481Z,-4.30
2023-02-27T05:33:45.170Z,-4.29
2023-02-27T05:34:17.862Z,-4.29
2023-02-27T05:34:50.501Z,-4.29
2023-02-27T05:35:23.168Z,-4.25
2023-02-27T05:35:55.874Z,-4.25
2023-02-27T05:36:28.538Z,-4.24
2023-02-27T05:37:01.223Z,-4.22
2023-02-27T05:37:33.908Z,-4.21
2023-02-27T05:38:06.565Z,-4.20
2023-02-27T05:38:39.235Z,-4.20
2023-02-27T05:39:11.911Z,-4.20
2023-02-27T05:39:44.577Z,-4.20
2023-02-27T05:40:17.260Z,-4.20
2023-02-27T05:40:49.944Z,-4.21
2023-02-27T05:41:22.599Z,-4.20
2023-02-27T05:41:55.261Z,-4.20
2023-02-27T05:42:27.941Z,-4.15
2023-02-27T05:43:00.635Z,-4.18
2023-02-27T05:43:33.303Z,-4.18
2023-02-27T05:44:05.982Z,-4.15
2023-02-27T05:44:38.648Z,-4.17
2023-02-27T05:45:11.322Z,-4.17
2023-02-27T05:45:44.012Z,-4.18
2023-02-27T05:46:16.728Z,-4.18
2023-02-27T05:46:49.367Z,-4.18
2023-02-27T05:47:22.036Z,-4.18
2023-02-27T05:47:54.709Z,-4.17
2023-02-27T05:48:27.378Z,-4.17
2023-02-27T05:49:00.042Z,-4.17
2023-02-27T05:49:32.747Z,-4.17
2023-02-27T05:50:05.406Z,-4.15
2023-02-27T05:50:38.078Z,-4.14
2023-02-27T05:51:10.751Z,-4.15
2023-02-27T05:51:43.423Z,-4.14
2023-02-27T05:52:16.095Z,-4.14
2023-02-27T05:52:48.756Z,-4.14
2023-02-27T05:53:21.447Z,-4.14
2023-02-27T05:53:54.140Z,-4.15
2023-02-27T05:54:26.812Z,-4.17
2023-02-27T05:54:59.481Z,-4.15
2023-02-27T05:55:32.148Z,-4.21
2023-02-27T05:56:04.814Z,-4.21
2023-02-27T05:56:37.473Z,-4.24
2023-02-27T05:57:10.150Z,-4.28
2023-02-27T05:57:42.805Z,-4.30
2023-02-27T05:58:15.491Z,-4.32
2023-02-27T05:58:48.162Z,-4.36
2023-02-27T05:59:20.842Z,-4.36
2023-02-27T05:59:53.515Z,-4.39
2023-02-27T06:00:26.197Z,-4.39
2023-02-27T06:00:58.860Z,-4.40
2023-02-27T06:01:31.545Z,-4.42
2023-02-27T06:02:04.271Z,-4.39
2023-02-27T06:02:36.937Z,-4.40
2023-02-27T06:03:09.687Z,-4.39
2023-02-27T06:03:42.477Z,-4.39
2023-02-27T06:04:15.255Z,-4.38
2023-02-27T06:04:47.900Z,-4.36
2023-02-27T06:05:20.540Z,-4.38
2023-02-27T06:05:53.220Z,-4.33
2023-02-27T06:06:26.183Z,-4.33
2023-02-27T06:06:52.444Z,-4.32
2023-02-27T06:07:25.164Z,-4.29
2023-02-27T06:07:57.793Z,-4.29
2023-02-27T06:08:30.496Z,-4.29
2023-02-27T06:09:03.184Z,-4.28
2023-02-27T06:09:35.880Z,-4.30
2023-02-27T06:10:08.531Z,-4.29
2023-02-27T06:10:41.202Z,-4.30
2023-02-27T06:11:13.867Z,-4.28
2023-02-27T06:11:46.536Z,-4.29
2023-02-27T06:12:19.209Z,-4.28
2023-02-27T06:12:51.870Z,-4.28
2023-02-27T06:13:24.567Z,-4.32
2023-02-27T06:13:57.233Z,-4.29
2023-02-27T06:14:29.900Z,-4.28
2023-02-27T06:15:02.586Z,-4.29
2023-02-27T06:15:35.254Z,-4.25
2023-02-27T06:16:07.914Z,-4.29
2023-02-27T06:16:40.632Z,-4.28
2023-02-27T06:17:13.317Z,-4.25
2023-02-27T06:17:45.974Z,-4.25
2023-02-27T06:18:18.646Z,-4.25
2023-02-27T06:18:51.351Z,-4.25
2023-02-27T06:19:24.024Z,-4.25
2023-02-27T06:19:55.127Z,-4.24
2023-02-27T06:20:27.778Z,-4.21
2023-02-27T06:21:00.446Z,-4.22
2023-02-27T06:21:33.124Z,-4.20
2023-02-27T06:22:05.778Z,-4.20
2023-02-27T06:22:38.450Z,-4.18
2023-02-27T06:23:11.133Z,-4.18
2023-02-27T06:23:43.833Z,-4.15
2023-02-27T06:24:16.487Z,-4.15
2023-02-27T06:24:49.145Z,-4.14
2023-02-27T06:25:21.813Z,-4.12
2023-02-27T06:25:54.479Z,-4.11
2023-02-27T06:26:27.388Z,-4.10
2023-02-27T06:26:53.682Z,-4.10
2023-02-27T06:27:24.763Z,-4.11
2023-02-27T06:27:57.435Z,-4.12
2023-02-27T06:28:30.117Z,-4.12
2023-02-27T06:29:02.797Z,-4.11
2023-02-27T06:29:35.467Z,-4.12
2023-02-27T06:30:08.145Z,-4.12
2023-02-27T06:30:40.842Z,-4.11
2023-02-27T06:31:13.566Z,-4.10
2023-02-27T06:31:46.217Z,-4.07
2023-02-27T06:32:19.023Z,-4.07
2023-02-27T06:32:51.677Z,-4.06
2023-02-27T06:33:24.355Z,-4.06
2023-02-27T06:33:55.459Z,-4.06
2023-02-27T06:34:28.127Z,-4.07
2023-02-27T06:35:00.828Z,-4.07
2023-02-27T06:35:33.473Z,-4.06
2023-02-27T06:36:06.239Z,-4.07
2023-02-27T06:36:38.896Z,-4.11
2023-02-27T06:37:11.561Z,-4.07
2023-02-27T06:37:44.227Z,-4.11
2023-02-27T06:38:16.910Z,-4.10
2023-02-27T06:38:49.597Z,-4.12
2023-02-27T06:39:22.265Z,-4.15
2023-02-27T06:39:54.958Z,-4.12
2023-02-27T06:40:27.601Z,-4.15
2023-02-27T06:41:00.265Z,-4.11
2023-02-27T06:41:32.940Z,-4.15
2023-02-27T06:42:05.616Z,-4.12
2023-02-27T06:42:38.282Z,-4.11
2023-02-27T06:43:10.974Z,-4.12
2023-02-27T06:43:43.647Z,-4.10
2023-02-27T06:44:17.976Z,-4.07
2023-02-27T06:44:45.528Z,-4.06
2023-02-27T06:45:18.205Z,-4.07
2023-02-27T06:45:50.906Z,-4.10
2023-02-27T06:46:23.599Z,-4.06
2023-02-27T06:46:56.263Z,-4.06
2023-02-27T06:47:28.926Z,-4.04
2023-02-27T06:48:01.598Z,-4.06
2023-02-27T06:48:34.275Z,-4.06
2023-02-27T06:49:06.964Z,-4.03
2023-02-27T06:49:39.647Z,-4.03
2023-02-27T06:50:12.339Z,-4.04
2023-02-27T06:50:45.006Z,-4.01
2023-02-27T06:51:17.657Z,-3.97
2023-02-27T06:51:50.331Z,-3.99
2023-02-27T06:52:23.006Z,-3.94
2023-02-27T06:52:55.687Z,-3.94
2023-02-27T06:53:28.348Z,-3.94
2023-02-27T06:54:01.033Z,-3.91
2023-02-27T06:54:33.692Z,-3.91
2023-02-27T06:55:06.365Z,-3.86
2023-02-27T06:55:39.121Z,-3.85
2023-02-27T06:56:11.794Z,-3.86
2023-02-27T06:56:44.464Z,-3.82
2023-02-27T06:57:17.120Z,-3.82
2023-02-27T06:57:49.791Z,-3.81
2023-02-27T06:58:22.463Z,-3.79
2023-02-27T06:58:55.171Z,-3.79
2023-02-27T06:59:27.845Z,-3.75